Salonica, Greece
Current Conditions -  °F | °C
As of 10:50 PM on Saturday 20 Dec 2014 (Local Time) from LGTS Reporting Station
Few Clouds Few Clouds  
Wind Chill: 46°   Ceiling: Unl
Heat Index: 48°   Visibility: 6mi
Dew Point: 39°   Wind: 6mph
Humidity: 71%   Direction: 350°N
Pressure: 30.12"   Gusts: NA
Location:  40.52°N, 22.97°E
Report Text: LGTS 201950Z 35005KT 9999 FEW020 09/04 Q1020 NOSIG
Loading
Personal Weather Stations






























Interactive Weather Map New forecast layout! Learn more

10-Day Weather Forecast

Advertisements
Track Severe Weather on mobile